Meteo Giornale » Osservazioni meteo Arabia Saudita » Yenbo
ore: 23:00 - Osservazioni Meteo Yenbo
Lat. 24° 9' N Lon. 38° 4' E Alt. 8 metri s.l.m.
31 °C
Sereno
Temp. 24 Ore
29 °C
41 °C
Ovest
13 Km/h
Dew point 24 °C
Umidità 66 %
Visibilità 10 Km
Il sole sorge alle ore 06:09
Il sole tramonta alle ore 18:46
| Data e Ora | Cielo e Fenomeni | T °C | DP °C | Um. % | Pres. hPa | Vis. km | Vento km/h | |
|---|---|---|---|---|---|---|---|---|
| Ieri h: 23:00 | Sereno | 31 | 24 | 66 | 1003 | 10 | O 13 | |
| Ieri h: 22:00 | Sereno | 32 | 22 | 55 | 1003 | 10 | O 16.7 | |
| Ieri h: 21:00 | Sereno | 33 | 21 | 49 | 1003 | 10 | O 18.5 | |
| Ieri h: 20:00 | Sereno | 33 | 23 | 55 | 1002 | 10 | O 14.8 | |
| Ieri h: 19:00 | Sereno | 35 | 21 | 44 | 1002 | 10 | O 22.2 | |
| Ieri h: 18:00 | Sereno | 36 | 22 | 44 | 1002 | 10 | O 33.3 | |
| Ieri h: 17:00 | Sereno | 36 | 24 | 50 | 1002 | 10 | O 29.6 | |
| Ieri h: 16:00 | Sereno | 37 | 23 | 44 | 1002 | 10 | O/SO 31.5 | |
| Ieri h: 15:00 | Sereno | 38 | 22 | 39 | 1002 | 10 | O/SO 31.5 | |
| Ieri h: 14:00 | Sereno | 39 | 21 | 35 | 1003 | 10 | O/SO 29.6 | |
| Ieri h: 13:00 | Sereno | 41 | 20 | 30 | 1003 | 10 | O/SO 22.2 | |
| Ieri h: 12:00 | Sereno | 41 | 13 | 19 | 1003 | 10 | S/SO 18.5 | |
| Ieri h: 11:00 | Sereno | 40 | 13 | 20 | 1003 | 10 | S/SO 14.8 | |
| Ieri h: 10:00 | Sereno | 37 | 12 | 22 | 1003 | 10 | S/SO 9.3 | |
| Ieri h: 09:00 | Sereno | 34 | 15 | 32 | 1003 | 10 | N 3.7 | |
| Ieri h: 08:00 | Sereno | 30 | 17 | 45 | 1003 | 10 | O 7.4 | |
| Ieri h: 07:00 | Sereno | 29 | 19 | 54 | 1002 | 10 | O 18.5 | |
| Ieri h: 06:00 | Sereno | 29 | 20 | 58 | 1002 | 10 | O 14.8 | |
| Ieri h: 05:00 | Sereno | 29 | 13 | 37 | 1002 | 10 | O 11.1 | |
| Ieri h: 04:00 | Sereno | 31 | 13 | 33 | 1002 | 10 | N 3.7 | |
| Ieri h: 03:00 | Sereno | 31 | 15 | 37 | 1002 | 10 | N 3.7 | |
| Ieri h: 02:00 | Sereno | 32 | 16 | 38 | 1002 | 10 | O 14.8 | |
| Ieri h: 01:00 | Sereno | 33 | 15 | 33 | 1003 | 10 | O 13 | |



